sensor_id;sensor_type;location;lat;lon;timestamp;pressure;altitude;pressure_sealevel;temperature;humidity
51297;BME280;37380;45.186;9.792;2023-01-31T00:14:28;101317.53;;;-0.68;100.00
51297;BME280;37380;45.186;9.792;2023-01-31T00:17:38;101479.22;;;0.18;100.00
51297;BME280;37380;45.186;9.792;2023-01-31T00:20:10;101493.13;;;0.20;100.00
51297;BME280;37380;45.186;9.792;2023-01-31T00:22:46;101465.56;;;0.09;100.00
51297;BME280;37380;45.186;9.792;2023-01-31T00:25:40;101465.38;;;-0.03;100.00
51297;BME280;37380;45.186;9.792;2023-01-31T00:28:09;101446.16;;;-0.16;100.00
51297;BME280;37380;45.186;9.792;2023-01-31T00:30:38;101463.25;;;-0.17;100.00
51297;BME280;37380;45.186;9.792;2023-01-31T00:33:08;101494.66;;;0.18;100.00
51297;BME280;37380;45.186;9.792;2023-01-31T00:35:49;101501.31;;;0.16;100.00
51297;BME280;37380;45.186;9.792;2023-01-31T00:38:17;101488.44;;;0.06;100.00
51297;BME280;37380;45.186;9.792;2023-01-31T00:45:34;101393.81;;;-0.56;100.00
51297;BME280;37380;45.186;9.792;2023-01-31T00:48:31;101445.44;;;-0.53;100.00
51297;BME280;37380;45.186;9.792;2023-01-31T00:51:22;101286.38;;;-1.29;100.00
51297;BME280;37380;45.186;9.792;2023-01-31T01:08:39;101495.47;;;-0.39;100.00
51297;BME280;37380;45.186;9.792;2023-01-31T01:11:26;101436.25;;;-0.79;100.00
51297;BME280;37380;45.186;9.792;2023-01-31T01:13:57;101331.78;;;-1.55;100.00
51297;BME280;37380;45.186;9.792;2023-01-31T01:16:52;101556.69;;;-0.25;100.00
51297;BME280;37380;45.186;9.792;2023-01-31T01:24:34;101416.56;;;-1.07;100.00
51297;BME280;37380;45.186;9.792;2023-01-31T01:32:25;101488.66;;;-0.58;100.00
51297;BME280;37380;45.186;9.792;2023-01-31T01:49:46;101603.63;;;0.02;100.00
51297;BME280;37380;45.186;9.792;2023-01-31T01:58:44;101616.47;;;0.20;100.00
51297;BME280;37380;45.186;9.792;2023-01-31T02:01:31;101457.44;;;-0.62;100.00
51297;BME280;37380;45.186;9.792;2023-01-31T02:04:39;101614.47;;;0.27;100.00
51297;BME280;37380;45.186;9.792;2023-01-31T02:07:46;101615.44;;;0.18;100.00
51297;BME280;37380;45.186;9.792;2023-01-31T02:11:36;101626.09;;;0.23;100.00
51297;BME280;37380;45.186;9.792;2023-01-31T02:15:16;101384.28;;;-1.14;100.00
51297;BME280;37380;45.186;9.792;2023-01-31T02:17:52;101481.69;;;-0.78;100.00
51297;BME280;37380;45.186;9.792;2023-01-31T03:04:20;101448.94;;;-1.72;100.00
51297;BME280;37380;45.186;9.792;2023-01-31T03:06:58;101649.72;;;-0.47;100.00
51297;BME280;37380;45.186;9.792;2023-01-31T03:10:18;101605.19;;;-0.83;100.00
51297;BME280;37380;45.186;9.792;2023-01-31T03:21:59;101666.44;;;-0.78;100.00
51297;BME280;37380;45.186;9.792;2023-01-31T03:25:10;101675.66;;;-0.80;100.00
51297;BME280;37380;45.186;9.792;2023-01-31T03:28:20;101674.47;;;-0.92;100.00
51297;BME280;37380;45.186;9.792;2023-01-31T03:31:40;101684.00;;;-1.08;100.00
51297;BME280;37380;45.186;9.792;2023-01-31T03:34:09;101692.31;;;-1.11;100.00
51297;BME280;37380;45.186;9.792;2023-01-31T03:36:48;101624.97;;;-1.53;100.00
51297;BME280;37380;45.186;9.792;2023-01-31T03:42:21;101692.19;;;-1.12;100.00
51297;BME280;37380;45.186;9.792;2023-01-31T03:47:33;101642.63;;;-1.48;100.00
51297;BME280;37380;45.186;9.792;2023-01-31T03:54:21;101697.94;;;-1.24;100.00
51297;BME280;37380;45.186;9.792;2023-01-31T03:57:24;101680.56;;;-1.18;100.00
51297;BME280;37380;45.186;9.792;2023-01-31T03:59:56;101664.28;;;-1.27;100.00
51297;BME280;37380;45.186;9.792;2023-01-31T04:02:35;101675.16;;;-1.38;100.00
51297;BME280;37380;45.186;9.792;2023-01-31T04:05:39;101649.69;;;-1.45;100.00
51297;BME280;37380;45.186;9.792;2023-01-31T04:08:46;101687.97;;;-1.21;100.00
51297;BME280;37380;45.186;9.792;2023-01-31T04:11:49;101686.16;;;-1.22;100.00
51297;BME280;37380;45.186;9.792;2023-01-31T04:14:17;101437.03;;;-2.68;100.00
51297;BME280;37380;45.186;9.792;2023-01-31T04:16:45;101630.41;;;-1.76;100.00
51297;BME280;37380;45.186;9.792;2023-01-31T04:19:25;101692.31;;;-1.20;100.00
51297;BME280;37380;45.186;9.792;2023-01-31T04:22:31;101496.78;;;-2.07;100.00
51297;BME280;37380;45.186;9.792;2023-01-31T04:26:10;101450.59;;;-2.61;100.00
51297;BME280;37380;45.186;9.792;2023-01-31T04:28:38;101668.38;;;-1.46;100.00
51297;BME280;37380;45.186;9.792;2023-01-31T04:31:11;101676.66;;;-1.40;100.00
51297;BME280;37380;45.186;9.792;2023-01-31T04:33:38;101653.47;;;-1.50;100.00
51297;BME280;37380;45.186;9.792;2023-01-31T04:36:11;101578.28;;;-2.03;100.00
51297;BME280;37380;45.186;9.792;2023-01-31T04:38:44;101676.06;;;-1.46;100.00
51297;BME280;37380;45.186;9.792;2023-01-31T04:41:24;101714.66;;;-1.19;100.00
51297;BME280;37380;45.186;9.792;2023-01-31T04:44:20;101695.84;;;-1.28;100.00
51297;BME280;37380;45.186;9.792;2023-01-31T04:47:21;101722.81;;;-1.23;100.00
51297;BME280;37380;45.186;9.792;2023-01-31T04:50:15;101719.63;;;-1.38;100.00
51297;BME280;37380;45.186;9.792;2023-01-31T04:52:50;101704.72;;;-1.50;100.00
51297;BME280;37380;45.186;9.792;2023-01-31T04:55:23;101706.22;;;-1.44;100.00
51297;BME280;37380;45.186;9.792;2023-01-31T04:58:17;101722.50;;;-1.34;100.00
51297;BME280;37380;45.186;9.792;2023-01-31T05:00:44;101703.38;;;-1.47;100.00
51297;BME280;37380;45.186;9.792;2023-01-31T05:04:00;101568.91;;;-2.37;100.00
51297;BME280;37380;45.186;9.792;2023-01-31T05:13:00;101711.34;;;-1.44;100.00
51297;BME280;37380;45.186;9.792;2023-01-31T05:25:37;101723.06;;;-1.89;100.00
51297;BME280;37380;45.186;9.792;2023-01-31T05:28:24;101603.94;;;-2.54;100.00
51297;BME280;37380;45.186;9.792;2023-01-31T05:31:01;101711.00;;;-1.90;100.00
51297;BME280;37380;45.186;9.792;2023-01-31T05:33:42;101714.94;;;-1.94;100.00
51297;BME280;37380;45.186;9.792;2023-01-31T05:36:13;101732.41;;;-1.81;100.00
51297;BME280;37380;45.186;9.792;2023-01-31T05:38:48;101748.41;;;-1.75;100.00
51297;BME280;37380;45.186;9.792;2023-01-31T05:41:19;101755.03;;;-1.77;100.00
51297;BME280;37380;45.186;9.792;2023-01-31T05:43:47;101677.06;;;-2.14;100.00
51297;BME280;37380;45.186;9.792;2023-01-31T05:46:23;101630.66;;;-2.34;100.00
51297;BME280;37380;45.186;9.792;2023-01-31T05:48:50;101654.25;;;-2.45;100.00
51297;BME280;37380;45.186;9.792;2023-01-31T05:51:44;101751.59;;;-1.77;100.00
51297;BME280;37380;45.186;9.792;2023-01-31T05:54:40;101753.41;;;-1.68;100.00
51297;BME280;37380;45.186;9.792;2023-01-31T05:57:45;101730.03;;;-1.71;100.00
51297;BME280;37380;45.186;9.792;2023-01-31T06:00:38;101750.56;;;-1.53;100.00
51297;BME280;37380;45.186;9.792;2023-01-31T06:03:09;101757.34;;;-1.45;100.00
51297;BME280;37380;45.186;9.792;2023-01-31T06:07:07;101759.16;;;-1.44;100.00
51297;BME280;37380;45.186;9.792;2023-01-31T06:10:09;101780.69;;;-1.68;100.00
51297;BME280;37380;45.186;9.792;2023-01-31T06:12:47;101702.81;;;-2.21;100.00
51297;BME280;37380;45.186;9.792;2023-01-31T06:15:22;101802.09;;;-1.68;100.00
51297;BME280;37380;45.186;9.792;2023-01-31T06:17:51;101760.75;;;-1.88;100.00
51297;BME280;37380;45.186;9.792;2023-01-31T06:20:23;101703.56;;;-2.22;100.00
51297;BME280;37380;45.186;9.792;2023-01-31T06:22:50;101810.84;;;-1.66;100.00
51297;BME280;37380;45.186;9.792;2023-01-31T06:25:18;101799.84;;;-1.56;100.00
51297;BME280;37380;45.186;9.792;2023-01-31T06:31:36;101655.72;;;-2.47;100.00
51297;BME280;37380;45.186;9.792;2023-01-31T06:35:28;101814.72;;;-1.69;100.00
51297;BME280;37380;45.186;9.792;2023-01-31T06:39:12;101823.00;;;-1.72;100.00
51297;BME280;37380;45.186;9.792;2023-01-31T06:42:59;101831.44;;;-2.15;100.00
51297;BME280;37380;45.186;9.792;2023-01-31T06:46:08;101825.28;;;-2.41;100.00
51297;BME280;37380;45.186;9.792;2023-01-31T06:50:34;101544.50;;;-3.93;100.00
51297;BME280;37380;45.186;9.792;2023-01-31T07:14:30;101839.38;;;-1.87;100.00
51297;BME280;37380;45.186;9.792;2023-01-31T07:28:43;101770.03;;;-2.06;100.00
51297;BME280;37380;45.186;9.792;2023-01-31T07:32:13;101748.50;;;-1.99;100.00
51297;BME280;37380;45.186;9.792;2023-01-31T07:39:46;101868.56;;;-0.84;100.00
51297;BME280;37380;45.186;9.792;2023-01-31T07:43:25;101885.75;;;-0.65;100.00
51297;BME280;37380;45.186;9.792;2023-01-31T07:46:23;101702.28;;;-1.23;100.00
51297;BME280;37380;45.186;9.792;2023-01-31T07:49:23;101870.28;;;-0.22;100.00
51297;BME280;37380;45.186;9.792;2023-01-31T07:51:51;101637.50;;;-1.56;100.00
51297;BME280;37380;45.186;9.792;2023-01-31T07:54:35;101879.97;;;-0.19;100.00
51297;BME280;37380;45.186;9.792;2023-01-31T07:58:19;101758.78;;;-0.60;100.00
51297;BME280;37380;45.186;9.792;2023-01-31T08:00:52;101900.72;;;0.10;100.00
51297;BME280;37380;45.186;9.792;2023-01-31T08:03:44;101819.34;;;-0.09;100.00
51297;BME280;37380;45.186;9.792;2023-01-31T08:06:38;101885.28;;;0.46;100.00
51297;BME280;37380;45.186;9.792;2023-01-31T08:09:12;101884.50;;;0.56;100.00
51297;BME280;37380;45.186;9.792;2023-01-31T08:12:46;101822.06;;;0.48;100.00
51297;BME280;37380;45.186;9.792;2023-01-31T08:15:53;101807.41;;;0.47;100.00
51297;BME280;37380;45.186;9.792;2023-01-31T08:18:48;101658.84;;;-0.31;100.00
51297;BME280;37380;45.186;9.792;2023-01-31T08:21:51;101932.81;;;1.43;100.00
51297;BME280;37380;45.186;9.792;2023-01-31T08:25:10;101849.25;;;1.20;100.00
51297;BME280;37380;45.186;9.792;2023-01-31T08:27:51;101935.19;;;1.98;100.00
51297;BME280;37380;45.186;9.792;2023-01-31T08:30:18;101861.91;;;1.75;100.00
51297;BME280;37380;45.186;9.792;2023-01-31T08:32:51;101893.84;;;2.07;100.00
51297;BME280;37380;45.186;9.792;2023-01-31T08:35:56;101820.09;;;1.59;100.00
51297;BME280;37380;45.186;9.792;2023-01-31T08:38:23;101856.03;;;1.97;100.00
51297;BME280;37380;45.186;9.792;2023-01-31T08:40:51;101866.19;;;2.24;100.00
51297;BME280;37380;45.186;9.792;2023-01-31T08:43:46;101899.75;;;2.55;100.00
51297;BME280;37380;45.186;9.792;2023-01-31T08:46:35;101697.28;;;1.39;100.00
51297;BME280;37380;45.186;9.792;2023-01-31T08:50:11;101937.75;;;2.87;100.00
51297;BME280;37380;45.186;9.792;2023-01-31T08:53:09;101949.34;;;3.02;100.00
51297;BME280;37380;45.186;9.792;2023-01-31T08:55:46;101953.13;;;3.06;100.00
51297;BME280;37380;45.186;9.792;2023-01-31T08:58:56;101947.31;;;2.98;100.00
51297;BME280;37380;45.186;9.792;2023-01-31T09:01:23;101831.38;;;1.51;100.00
51297;BME280;37380;45.186;9.792;2023-01-31T09:03:57;101775.44;;;1.69;100.00
51297;BME280;37380;45.186;9.792;2023-01-31T09:06:25;101910.75;;;2.63;100.00
51297;BME280;37380;45.186;9.792;2023-01-31T09:08:59;101918.38;;;3.12;100.00
51297;BME280;37380;45.186;9.792;2023-01-31T09:11:58;101900.03;;;3.20;100.00
51297;BME280;37380;45.186;9.792;2023-01-31T09:14:25;101969.84;;;3.72;100.00
51297;BME280;37380;45.186;9.792;2023-01-31T09:16:52;101939.59;;;3.81;100.00
51297;BME280;37380;45.186;9.792;2023-01-31T09:19:21;101916.69;;;3.44;100.00
51297;BME280;37380;45.186;9.792;2023-01-31T09:21:49;101844.44;;;3.03;100.00
51297;BME280;37380;45.186;9.792;2023-01-31T09:24:17;101889.59;;;3.71;100.00
51297;BME280;37380;45.186;9.792;2023-01-31T09:26:44;101949.16;;;4.15;100.00
51297;BME280;37380;45.186;9.792;2023-01-31T09:29:17;101889.50;;;4.23;100.00
51297;BME280;37380;45.186;9.792;2023-01-31T09:36:39;101783.06;;;3.10;100.00
51297;BME280;37380;45.186;9.792;2023-01-31T09:39:14;101849.69;;;3.89;100.00
51297;BME280;37380;45.186;9.792;2023-01-31T09:47:41;101876.63;;;4.13;100.00
51297;BME280;37380;45.186;9.792;2023-01-31T09:50:35;101953.81;;;4.41;100.00
51297;BME280;37380;45.186;9.792;2023-01-31T09:53:29;101864.28;;;3.99;100.00
51297;BME280;37380;45.186;9.792;2023-01-31T09:57:40;101961.19;;;4.14;100.00
51297;BME280;37380;45.186;9.792;2023-01-31T10:01:20;101904.75;;;3.56;100.00
51297;BME280;37380;45.186;9.792;2023-01-31T10:04:06;101964.97;;;3.65;100.00
51297;BME280;37380;45.186;9.792;2023-01-31T10:12:55;101874.00;;;3.49;100.00
51297;BME280;37380;45.186;9.792;2023-01-31T10:18:02;101985.13;;;4.12;100.00
51297;BME280;37380;45.186;9.792;2023-01-31T10:21:00;101837.91;;;3.28;100.00
51297;BME280;37380;45.186;9.792;2023-01-31T10:24:01;101838.69;;;3.37;100.00
51297;BME280;37380;45.186;9.792;2023-01-31T10:27:46;101956.66;;;4.44;100.00
51297;BME280;37380;45.186;9.792;2023-01-31T10:34:42;101695.19;;;2.99;100.00
51297;BME280;37380;45.186;9.792;2023-01-31T10:45:22;101864.56;;;4.36;100.00
51297;BME280;37380;45.186;9.792;2023-01-31T10:54:23;101938.97;;;5.28;100.00
51297;BME280;37380;45.186;9.792;2023-01-31T11:03:40;101928.25;;;5.23;100.00
51297;BME280;37380;45.186;9.792;2023-01-31T11:06:51;101921.31;;;5.57;100.00
51297;BME280;37380;45.186;9.792;2023-01-31T11:09:53;101815.88;;;4.75;100.00
51297;BME280;37380;45.186;9.792;2023-01-31T11:12:58;101911.28;;;6.09;100.00
51297;BME280;37380;45.186;9.792;2023-01-31T11:15:43;101826.22;;;5.33;100.00
51297;BME280;37380;45.186;9.792;2023-01-31T11:18:37;101880.19;;;5.62;100.00
51297;BME280;37380;45.186;9.792;2023-01-31T11:22:29;101779.84;;;5.61;100.00
51297;BME280;37380;45.186;9.792;2023-01-31T11:24:58;101847.03;;;6.30;100.00
51297;BME280;37380;45.186;9.792;2023-01-31T11:27:42;101673.03;;;4.69;100.00
51297;BME280;37380;45.186;9.792;2023-01-31T11:30:30;101666.38;;;4.38;100.00
51297;BME280;37380;45.186;9.792;2023-01-31T11:33:43;101746.78;;;4.98;100.00
51297;BME280;37380;45.186;9.792;2023-01-31T11:36:46;101645.56;;;4.48;100.00
51297;BME280;37380;45.186;9.792;2023-01-31T11:39:55;101891.13;;;6.42;100.00
51297;BME280;37380;45.186;9.792;2023-01-31T11:42:26;101659.97;;;5.15;100.00
51297;BME280;37380;45.186;9.792;2023-01-31T11:45:01;101892.50;;;6.62;100.00
51297;BME280;37380;45.186;9.792;2023-01-31T11:51:49;101891.03;;;6.90;100.00
51297;BME280;37380;45.186;9.792;2023-01-31T12:01:42;101675.88;;;5.70;100.00
51297;BME280;37380;45.186;9.792;2023-01-31T12:05:49;101875.13;;;7.37;100.00
51297;BME280;37380;45.186;9.792;2023-01-31T12:08:57;101764.75;;;6.92;100.00
51297;BME280;37380;45.186;9.792;2023-01-31T12:12:34;101858.34;;;6.94;100.00
51297;BME280;37380;45.186;9.792;2023-01-31T12:24:20;101833.72;;;7.40;100.00
51297;BME280;37380;45.186;9.792;2023-01-31T12:39:50;101825.50;;;7.21;100.00
51297;BME280;37380;45.186;9.792;2023-01-31T13:01:30;101643.81;;;6.97;100.00
51297;BME280;37380;45.186;9.792;2023-01-31T13:08:27;101655.41;;;7.02;100.00
51297;BME280;37380;45.186;9.792;2023-01-31T13:12:33;101761.75;;;7.81;100.00
51297;BME280;37380;45.186;9.792;2023-01-31T13:15:55;101682.41;;;7.46;100.00
51297;BME280;37380;45.186;9.792;2023-01-31T13:19:33;101744.59;;;7.98;100.00
51297;BME280;37380;45.186;9.792;2023-01-31T13:26:27;101513.75;;;6.81;100.00
51297;BME280;37380;45.186;9.792;2023-01-31T14:25:41;101605.72;;;7.82;100.00
51297;BME280;37380;45.186;9.792;2023-01-31T14:29:31;101542.22;;;7.36;100.00
51297;BME280;37380;45.186;9.792;2023-01-31T14:33:30;101620.28;;;7.93;100.00
51297;BME280;37380;45.186;9.792;2023-01-31T14:42:33;101650.44;;;8.05;100.00
51297;BME280;37380;45.186;9.792;2023-01-31T14:48:23;101681.63;;;8.33;100.00
51297;BME280;37380;45.186;9.792;2023-01-31T14:50:56;101676.25;;;8.15;100.00
51297;BME280;37380;45.186;9.792;2023-01-31T14:57:26;101625.47;;;7.93;100.00
51297;BME280;37380;45.186;9.792;2023-01-31T15:00:35;101682.16;;;8.12;100.00
51297;BME280;37380;45.186;9.792;2023-01-31T15:03:50;101667.22;;;7.95;100.00
51297;BME280;37380;45.186;9.792;2023-01-31T15:06:56;101678.19;;;8.04;100.00
51297;BME280;37380;45.186;9.792;2023-01-31T15:09:58;101661.13;;;7.94;100.00
51297;BME280;37380;45.186;9.792;2023-01-31T15:15:33;101681.50;;;8.02;100.00
51297;BME280;37380;45.186;9.792;2023-01-31T15:18:04;101638.47;;;7.79;100.00
51297;BME280;37380;45.186;9.792;2023-01-31T15:20:48;101660.59;;;7.85;100.00
51297;BME280;37380;45.186;9.792;2023-01-31T15:23:54;101673.69;;;8.02;100.00
51297;BME280;37380;45.186;9.792;2023-01-31T15:27:21;101656.28;;;7.58;100.00
51297;BME280;37380;45.186;9.792;2023-01-31T15:30:23;101673.78;;;7.60;100.00
51297;BME280;37380;45.186;9.792;2023-01-31T15:33:29;101610.47;;;7.18;100.00
51297;BME280;37380;45.186;9.792;2023-01-31T15:36:01;101677.25;;;7.61;100.00
51297;BME280;37380;45.186;9.792;2023-01-31T15:38:59;101678.78;;;7.57;100.00
51297;BME280;37380;45.186;9.792;2023-01-31T15:41:40;101591.00;;;7.12;100.00
51297;BME280;37380;45.186;9.792;2023-01-31T15:47:19;101660.84;;;7.20;100.00
51297;BME280;37380;45.186;9.792;2023-01-31T15:49:53;101563.72;;;6.50;100.00
51297;BME280;37380;45.186;9.792;2023-01-31T15:52:21;101631.22;;;6.77;100.00
51297;BME280;37380;45.186;9.792;2023-01-31T15:55:15;101586.78;;;6.32;100.00
51297;BME280;37380;45.186;9.792;2023-01-31T15:58:27;101680.88;;;6.55;100.00
51297;BME280;37380;45.186;9.792;2023-01-31T16:05:37;101668.63;;;6.27;100.00
51297;BME280;37380;45.186;9.792;2023-01-31T16:09:30;101587.53;;;5.66;100.00
51297;BME280;37380;45.186;9.792;2023-01-31T16:12:32;101578.00;;;5.54;100.00
51297;BME280;37380;45.186;9.792;2023-01-31T16:18:15;101533.28;;;4.94;100.00
51297;BME280;37380;45.186;9.792;2023-01-31T16:21:10;101578.50;;;5.11;100.00
51297;BME280;37380;45.186;9.792;2023-01-31T16:24:27;101540.16;;;4.57;100.00
51297;BME280;37380;45.186;9.792;2023-01-31T16:27:38;101708.06;;;5.60;100.00
51297;BME280;37380;45.186;9.792;2023-01-31T16:31:42;101703.97;;;5.38;100.00
51297;BME280;37380;45.186;9.792;2023-01-31T16:34:29;101510.69;;;4.31;100.00
51297;BME280;37380;45.186;9.792;2023-01-31T16:38:17;101686.22;;;5.56;100.00
51297;BME280;37380;45.186;9.792;2023-01-31T16:41:50;101686.38;;;5.22;100.00
51297;BME280;37380;45.186;9.792;2023-01-31T16:45:34;101688.34;;;4.66;100.00
51297;BME280;37380;45.186;9.792;2023-01-31T16:49:01;101705.53;;;4.42;100.00
51297;BME280;37380;45.186;9.792;2023-01-31T16:51:44;101569.56;;;3.43;100.00
51297;BME280;37380;45.186;9.792;2023-01-31T16:54:52;101557.47;;;3.20;100.00
51297;BME280;37380;45.186;9.792;2023-01-31T16:57:35;101699.50;;;4.08;100.00
51297;BME280;37380;45.186;9.792;2023-01-31T17:00:36;101626.22;;;3.85;100.00
51297;BME280;37380;45.186;9.792;2023-01-31T17:03:16;101689.66;;;4.38;100.00
51297;BME280;37380;45.186;9.792;2023-01-31T17:06:29;101615.91;;;3.63;100.00
51297;BME280;37380;45.186;9.792;2023-01-31T17:09:28;101576.22;;;3.17;100.00
51297;BME280;37380;45.186;9.792;2023-01-31T17:11:59;101550.03;;;2.91;100.00
51297;BME280;37380;45.186;9.792;2023-01-31T17:14:39;101580.88;;;2.89;100.00
51297;BME280;37380;45.186;9.792;2023-01-31T17:17:33;101563.06;;;2.60;100.00
51297;BME280;37380;45.186;9.792;2023-01-31T17:20:13;101614.22;;;2.76;100.00
51297;BME280;37380;45.186;9.792;2023-01-31T17:23:26;101736.03;;;3.25;100.00
51297;BME280;37380;45.186;9.792;2023-01-31T17:26:29;101433.31;;;1.65;100.00
51297;BME280;37380;45.186;9.792;2023-01-31T17:32:28;101568.47;;;2.21;100.00
51297;BME280;37380;45.186;9.792;2023-01-31T17:35:43;101603.72;;;2.53;100.00
51297;BME280;37380;45.186;9.792;2023-01-31T17:38:16;101686.25;;;3.05;100.00
51297;BME280;37380;45.186;9.792;2023-01-31T17:41:35;101683.41;;;3.12;100.00
51297;BME280;37380;45.186;9.792;2023-01-31T17:44:13;101619.69;;;2.69;100.00
51297;BME280;37380;45.186;9.792;2023-01-31T17:46:42;101689.69;;;2.84;100.00
51297;BME280;37380;45.186;9.792;2023-01-31T17:49:09;101621.81;;;2.42;100.00
51297;BME280;37380;45.186;9.792;2023-01-31T17:51:41;101601.75;;;2.28;100.00
51297;BME280;37380;45.186;9.792;2023-01-31T17:54:12;101610.72;;;2.54;100.00
51297;BME280;37380;45.186;9.792;2023-01-31T17:56:55;101571.28;;;2.77;100.00
51297;BME280;37380;45.186;9.792;2023-01-31T18:00:27;101595.78;;;3.04;100.00
51297;BME280;37380;45.186;9.792;2023-01-31T18:04:30;101475.41;;;2.72;100.00
51297;BME280;37380;45.186;9.792;2023-01-31T18:08:27;101715.38;;;4.24;100.00
51297;BME280;37380;45.186;9.792;2023-01-31T18:14:47;101692.41;;;4.05;100.00
51297;BME280;37380;45.186;9.792;2023-01-31T18:17:43;101573.72;;;3.41;100.00
51297;BME280;37380;45.186;9.792;2023-01-31T18:20:17;101623.81;;;3.43;100.00
51297;BME280;37380;45.186;9.792;2023-01-31T18:23:19;101647.03;;;3.53;100.00
51297;BME280;37380;45.186;9.792;2023-01-31T18:26:16;101687.75;;;3.46;100.00
51297;BME280;37380;45.186;9.792;2023-01-31T18:28:50;101686.84;;;3.23;100.00
51297;BME280;37380;45.186;9.792;2023-01-31T18:32:13;101485.84;;;1.87;100.00
51297;BME280;37380;45.186;9.792;2023-01-31T18:34:44;101647.53;;;2.73;100.00
51297;BME280;37380;45.186;9.792;2023-01-31T18:37:22;101639.50;;;2.38;100.00
51297;BME280;37380;45.186;9.792;2023-01-31T18:39:52;101680.25;;;2.84;100.00
51297;BME280;37380;45.186;9.792;2023-01-31T18:42:20;101704.63;;;2.98;100.00
51297;BME280;37380;45.186;9.792;2023-01-31T18:45:15;101651.34;;;2.46;100.00
51297;BME280;37380;45.186;9.792;2023-01-31T18:48:00;101620.31;;;2.14;100.00
51297;BME280;37380;45.186;9.792;2023-01-31T18:51:20;101713.13;;;2.44;100.00
51297;BME280;37380;45.186;9.792;2023-01-31T18:53:57;101602.06;;;1.90;100.00
51297;BME280;37380;45.186;9.792;2023-01-31T18:57:26;101687.59;;;2.47;100.00
51297;BME280;37380;45.186;9.792;2023-01-31T19:41:52;101584.22;;;1.22;100.00
51297;BME280;37380;45.186;9.792;2023-01-31T19:48:24;101645.50;;;1.26;100.00
51297;BME280;37380;45.186;9.792;2023-01-31T20:00:40;101716.78;;;1.46;100.00
51297;BME280;37380;45.186;9.792;2023-01-31T20:03:46;101696.38;;;1.39;100.00
51297;BME280;37380;45.186;9.792;2023-01-31T20:07:52;101542.06;;;0.51;100.00
51297;BME280;37380;45.186;9.792;2023-01-31T20:10:25;101550.22;;;0.56;100.00
51297;BME280;37380;45.186;9.792;2023-01-31T20:12:54;101713.97;;;1.24;100.00
51297;BME280;37380;45.186;9.792;2023-01-31T20:19:55;101654.19;;;1.07;100.00
51297;BME280;37380;45.186;9.792;2023-01-31T20:23:38;101717.00;;;1.39;100.00
51297;BME280;37380;45.186;9.792;2023-01-31T20:26:46;101721.03;;;1.55;100.00
51297;BME280;37380;45.186;9.792;2023-01-31T20:36:22;101721.97;;;1.76;100.00
51297;BME280;37380;45.186;9.792;2023-01-31T20:50:39;101706.47;;;1.56;100.00
51297;BME280;37380;45.186;9.792;2023-01-31T21:04:50;101452.81;;;0.30;100.00
51297;BME280;37380;45.186;9.792;2023-01-31T21:18:58;101720.28;;;1.27;100.00
51297;BME280;37380;45.186;9.792;2023-01-31T21:23:17;101593.03;;;0.36;100.00
51297;BME280;37380;45.186;9.792;2023-01-31T21:27:27;101558.34;;;0.12;100.00
51297;BME280;37380;45.186;9.792;2023-01-31T21:30:33;101727.00;;;0.96;100.00
51297;BME280;37380;45.186;9.792;2023-01-31T21:33:54;101705.84;;;0.90;100.00
51297;BME280;37380;45.186;9.792;2023-01-31T21:36:24;101716.97;;;0.99;100.00
51297;BME280;37380;45.186;9.792;2023-01-31T21:42:50;101709.72;;;0.95;100.00
51297;BME280;37380;45.186;9.792;2023-01-31T21:49:31;101702.59;;;1.11;100.00
51297;BME280;37380;45.186;9.792;2023-01-31T21:52:40;101699.38;;;1.43;100.00
51297;BME280;37380;45.186;9.792;2023-01-31T21:55:47;101690.97;;;1.35;100.00
51297;BME280;37380;45.186;9.792;2023-01-31T21:58:53;101684.16;;;1.36;100.00
51297;BME280;37380;45.186;9.792;2023-01-31T22:01:58;101618.91;;;0.96;100.00
51297;BME280;37380;45.186;9.792;2023-01-31T22:05:26;101708.13;;;1.45;100.00
51297;BME280;37380;45.186;9.792;2023-01-31T22:13:34;101723.47;;;1.54;100.00
51297;BME280;37380;45.186;9.792;2023-01-31T22:16:21;101683.41;;;1.37;100.00
51297;BME280;37380;45.186;9.792;2023-01-31T22:18:48;101679.50;;;1.32;100.00
51297;BME280;37380;45.186;9.792;2023-01-31T22:21:24;101704.78;;;1.46;100.00
51297;BME280;37380;45.186;9.792;2023-01-31T22:24:18;101632.84;;;1.08;100.00
51297;BME280;37380;45.186;9.792;2023-01-31T22:26:45;101686.34;;;1.31;100.00
51297;BME280;37380;45.186;9.792;2023-01-31T22:29:14;101665.06;;;1.24;100.00
51297;BME280;37380;45.186;9.792;2023-01-31T22:31:41;101668.41;;;1.23;100.00
51297;BME280;37380;45.186;9.792;2023-01-31T22:34:13;101687.09;;;1.30;100.00
51297;BME280;37380;45.186;9.792;2023-01-31T22:36:42;101673.56;;;1.23;100.00
51297;BME280;37380;45.186;9.792;2023-01-31T22:39:11;101678.19;;;1.17;100.00
51297;BME280;37380;45.186;9.792;2023-01-31T22:41:46;101600.25;;;0.70;100.00
51297;BME280;37380;45.186;9.792;2023-01-31T22:44:13;101680.50;;;1.13;100.00
51297;BME280;37380;45.186;9.792;2023-01-31T22:46:40;101687.44;;;1.15;100.00
51297;BME280;37380;45.186;9.792;2023-01-31T22:49:08;101689.09;;;1.14;100.00
51297;BME280;37380;45.186;9.792;2023-01-31T22:51:36;101590.91;;;0.70;100.00
51297;BME280;37380;45.186;9.792;2023-01-31T22:54:06;101608.56;;;0.86;100.00
51297;BME280;37380;45.186;9.792;2023-01-31T22:57:02;101623.31;;;0.78;100.00
51297;BME280;37380;45.186;9.792;2023-01-31T23:00:11;101683.75;;;1.31;100.00
51297;BME280;37380;45.186;9.792;2023-01-31T23:03:12;101670.53;;;1.37;100.00
51297;BME280;37380;45.186;9.792;2023-01-31T23:06:07;101646.47;;;1.07;100.00
51297;BME280;37380;45.186;9.792;2023-01-31T23:13:43;101541.03;;;0.20;100.00
51297;BME280;37380;45.186;9.792;2023-01-31T23:16:44;101621.59;;;0.58;100.00
51297;BME280;37380;45.186;9.792;2023-01-31T23:19:36;101657.00;;;1.00;100.00
51297;BME280;37380;45.186;9.792;2023-01-31T23:22:45;101563.44;;;0.50;100.00